createdAt,value
2016-11-03T00:00:03.797Z,1015.46
2016-11-03T00:00:13.764Z,1015.45
2016-11-03T00:00:23.759Z,1015.49
2016-11-03T00:00:33.752Z,1015.47
2016-11-03T00:00:43.747Z,1015.48
2016-11-03T00:00:53.741Z,1015.49
2016-11-03T00:01:03.736Z,1015.5
2016-11-03T00:01:13.729Z,1015.49
2016-11-03T00:01:23.724Z,1015.5
2016-11-03T00:01:33.717Z,1015.47
2016-11-03T00:01:43.711Z,1015.51
2016-11-03T00:01:53.705Z,1015.52
2016-11-03T00:02:03.701Z,1015.51
2016-11-03T00:02:13.693Z,1015.47
2016-11-03T00:02:23.686Z,1015.51
2016-11-03T00:02:33.683Z,1015.49
2016-11-03T00:02:43.676Z,1015.51
2016-11-03T00:02:53.671Z,1015.46
2016-11-03T00:03:03.663Z,1015.49
2016-11-03T00:03:13.657Z,1015.49
2016-11-03T00:03:23.652Z,1015.46
2016-11-03T00:03:33.752Z,1015.48
2016-11-03T00:03:43.640Z,1015.47
2016-11-03T00:03:53.635Z,1015.51
2016-11-03T00:04:03.629Z,1015.47
2016-11-03T00:04:13.622Z,1015.45
2016-11-03T00:04:23.617Z,1015.48
2016-11-03T00:04:33.610Z,1015.52
2016-11-03T00:04:43.605Z,1015.44
2016-11-03T00:04:53.597Z,1015.47
2016-11-03T00:05:03.592Z,1015.49
2016-11-03T00:05:13.585Z,1015.48
2016-11-03T00:05:23.580Z,1015.46
2016-11-03T00:05:33.573Z,1015.47
2016-11-03T00:05:43.569Z,1015.46
2016-11-03T00:05:53.562Z,1015.43
2016-11-03T00:06:03.558Z,1015.48
2016-11-03T00:06:13.549Z,1015.45
2016-11-03T00:06:23.542Z,1015.48
2016-11-03T00:06:33.538Z,1015.48
2016-11-03T00:06:43.532Z,1015.46
2016-11-03T00:06:53.527Z,1015.49
2016-11-03T00:07:03.520Z,1015.45
2016-11-03T00:07:13.515Z,1015.43
2016-11-03T00:07:23.508Z,1015.46
2016-11-03T00:07:33.501Z,1015.44
2016-11-03T00:07:43.496Z,1015.4
2016-11-03T00:07:53.490Z,1015.48
2016-11-03T00:08:03.485Z,1015.47
2016-11-03T00:08:13.478Z,1015.45
2016-11-03T00:08:23.472Z,1015.48
2016-11-03T00:08:33.466Z,1015.45
2016-11-03T00:08:43.462Z,1015.44
2016-11-03T00:08:53.454Z,1015.41
2016-11-03T00:09:03.448Z,1015.45
2016-11-03T00:09:13.443Z,1015.46
2016-11-03T00:09:23.438Z,1015.47
2016-11-03T00:09:33.431Z,1015.47
2016-11-03T00:09:43.424Z,1015.5
2016-11-03T00:09:53.419Z,1015.46
2016-11-03T00:10:03.413Z,1015.46
2016-11-03T00:10:13.954Z,1015.51
2016-11-03T00:10:23.403Z,1015.56
2016-11-03T00:10:33.422Z,1015.5
2016-11-03T00:10:43.388Z,1015.5
2016-11-03T00:10:53.383Z,1015.49
2016-11-03T00:11:03.712Z,1015.5
2016-11-03T00:11:13.372Z,1015.51
2016-11-03T00:11:23.365Z,1015.53
2016-11-03T00:11:33.361Z,1015.52
2016-11-03T00:11:43.379Z,1015.54
2016-11-03T00:11:53.347Z,1015.48
2016-11-03T00:12:03.340Z,1015.51
2016-11-03T00:12:13.334Z,1015.53
2016-11-03T00:12:23.330Z,1015.47
2016-11-03T00:12:33.325Z,1015.52
2016-11-03T00:12:43.317Z,1015.51
2016-11-03T00:12:53.311Z,1015.52
2016-11-03T00:13:03.333Z,1015.51
2016-11-03T00:13:13.301Z,1015.5
2016-11-03T00:13:23.293Z,1015.52
2016-11-03T00:13:33.287Z,1015.5
2016-11-03T00:13:43.282Z,1015.49
2016-11-03T00:13:53.275Z,1015.48
2016-11-03T00:14:03.271Z,1015.46
2016-11-03T00:14:13.266Z,1015.48
2016-11-03T00:14:23.260Z,1015.51
2016-11-03T00:14:33.276Z,1015.48
2016-11-03T00:14:43.246Z,1015.44
2016-11-03T00:14:53.239Z,1015.55
2016-11-03T00:15:03.233Z,1015.5
2016-11-03T00:15:13.228Z,1015.51
2016-11-03T00:15:23.223Z,1015.48
2016-11-03T00:15:33.217Z,1015.47
2016-11-03T00:15:43.209Z,1015.46
2016-11-03T00:15:53.205Z,1015.47
2016-11-03T00:16:03.198Z,1015.47
2016-11-03T00:16:13.192Z,1015.52
2016-11-03T00:16:23.186Z,1015.51
2016-11-03T00:16:33.580Z,1015.45
2016-11-03T00:16:43.175Z,1015.49
2016-11-03T00:16:53.169Z,1015.53
2016-11-03T00:17:03.193Z,1015.51
2016-11-03T00:17:13.158Z,1015.5
2016-11-03T00:17:23.151Z,1015.51
2016-11-03T00:17:33.144Z,1015.51
2016-11-03T00:17:43.138Z,1015.52
2016-11-03T00:17:53.132Z,1015.54
2016-11-03T00:18:03.127Z,1015.52
2016-11-03T00:18:13.121Z,1015.49
2016-11-03T00:18:23.117Z,1015.5
2016-11-03T00:18:33.110Z,1015.54
2016-11-03T00:18:43.104Z,1015.48
2016-11-03T00:18:53.096Z,1015.52
2016-11-03T00:19:03.090Z,1015.49
2016-11-03T00:19:13.086Z,1015.51
2016-11-03T00:19:23.106Z,1015.55
2016-11-03T00:19:33.073Z,1015.53
2016-11-03T00:19:43.068Z,1015.5
2016-11-03T00:19:53.065Z,1015.5
2016-11-03T00:20:03.055Z,1015.52
2016-11-03T00:20:13.049Z,1015.52
2016-11-03T00:20:23.043Z,1015.48
2016-11-03T00:20:33.062Z,1015.53
2016-11-03T00:20:43.031Z,1015.52
2016-11-03T00:20:53.025Z,1015.51
2016-11-03T00:21:03.020Z,1015.54
2016-11-03T00:21:13.013Z,1015.51
2016-11-03T00:21:23.008Z,1015.56
2016-11-03T00:21:33.002Z,1015.5
2016-11-03T00:21:42.994Z,1015.51
2016-11-03T00:21:52.993Z,1015.53
2016-11-03T00:22:02.985Z,1015.52
2016-11-03T00:22:12.978Z,1015.51
2016-11-03T00:22:22.972Z,1015.51
2016-11-03T00:22:32.967Z,1015.54
2016-11-03T00:22:42.959Z,1015.5
2016-11-03T00:22:52.954Z,1015.55
2016-11-03T00:23:02.948Z,1015.5
2016-11-03T00:23:12.941Z,1015.51
2016-11-03T00:23:22.937Z,1015.53
2016-11-03T00:23:32.928Z,1015.49
2016-11-03T00:23:42.925Z,1015.5
2016-11-03T00:23:52.919Z,1015.53
2016-11-03T00:24:02.912Z,1015.52
2016-11-03T00:24:12.907Z,1015.49
2016-11-03T00:24:22.901Z,1015.51
2016-11-03T00:24:32.895Z,1015.48
2016-11-03T00:24:42.888Z,1015.51
2016-11-03T00:24:52.882Z,1015.52
2016-11-03T00:25:02.878Z,1015.49
2016-11-03T00:25:12.871Z,1015.52
2016-11-03T00:25:22.865Z,1015.52
2016-11-03T00:25:32.859Z,1015.51
2016-11-03T00:25:42.852Z,1015.51
2016-11-03T00:25:52.848Z,1015.54
2016-11-03T00:26:02.841Z,1015.52
2016-11-03T00:26:12.834Z,1015.52
2016-11-03T00:26:22.858Z,1015.52
2016-11-03T00:26:32.823Z,1015.52
2016-11-03T00:26:42.845Z,1015.5
2016-11-03T00:26:52.811Z,1015.52
2016-11-03T00:27:02.805Z,1015.47
2016-11-03T00:27:12.800Z,1015.49
2016-11-03T00:27:22.794Z,1015.5
2016-11-03T00:27:32.787Z,1015.49
2016-11-03T00:27:42.780Z,1015.52
2016-11-03T00:27:52.775Z,1015.51
2016-11-03T00:28:02.767Z,1015.54
2016-11-03T00:28:12.763Z,1015.48
2016-11-03T00:28:22.779Z,1015.52
2016-11-03T00:28:32.752Z,1015.55
2016-11-03T00:28:42.771Z,1015.51
2016-11-03T00:28:52.737Z,1015.5
2016-11-03T00:29:02.734Z,1015.47
2016-11-03T00:29:12.728Z,1015.53
2016-11-03T00:29:22.723Z,1015.5
2016-11-03T00:29:32.716Z,1015.55
2016-11-03T00:29:42.709Z,1015.56
2016-11-03T00:29:52.701Z,1015.51
2016-11-03T00:30:02.697Z,1015.54
2016-11-03T00:30:12.690Z,1015.55
2016-11-03T00:30:22.686Z,1015.5
2016-11-03T00:30:32.678Z,1015.5
2016-11-03T00:30:42.674Z,1015.48
2016-11-03T00:30:52.668Z,1015.52
2016-11-03T00:31:02.687Z,1015.53
2016-11-03T00:31:12.655Z,1015.52
2016-11-03T00:31:22.651Z,1015.54
2016-11-03T00:31:32.645Z,1015.53
2016-11-03T00:31:42.638Z,1015.53
2016-11-03T00:31:52.630Z,1015.56
2016-11-03T00:32:02.643Z,1015.55
2016-11-03T00:32:12.621Z,1015.5
2016-11-03T00:32:22.612Z,1015.55
2016-11-03T00:32:32.607Z,1015.54
2016-11-03T00:32:42.603Z,1015.55
2016-11-03T00:32:52.597Z,1015.52
2016-11-03T00:33:02.591Z,1015.55
2016-11-03T00:33:12.586Z,1015.53
2016-11-03T00:33:22.577Z,1015.51
2016-11-03T00:33:32.571Z,1015.56
2016-11-03T00:33:42.564Z,1015.55
2016-11-03T00:33:52.560Z,1015.54
2016-11-03T00:34:02.554Z,1015.54
2016-11-03T00:34:12.548Z,1015.57
2016-11-03T00:34:22.542Z,1015.58
2016-11-03T00:34:32.536Z,1015.53
2016-11-03T00:34:42.530Z,1015.54
2016-11-03T00:34:52.524Z,1015.53
2016-11-03T00:35:02.516Z,1015.58
2016-11-03T00:35:12.515Z,1015.59
2016-11-03T00:35:22.613Z,1015.53
2016-11-03T00:35:32.501Z,1015.58
2016-11-03T00:35:42.495Z,1015.55
2016-11-03T00:35:52.519Z,1015.61
2016-11-03T00:36:02.483Z,1015.54
2016-11-03T00:36:12.476Z,1015.53
2016-11-03T00:36:22.471Z,1015.58
2016-11-03T00:36:32.467Z,1015.56
2016-11-03T00:36:42.459Z,1015.59
2016-11-03T00:36:52.453Z,1015.55
2016-11-03T00:37:02.448Z,1015.54
2016-11-03T00:37:12.442Z,1015.57
2016-11-03T00:37:22.435Z,1015.59
2016-11-03T00:37:32.428Z,1015.54
2016-11-03T00:37:42.422Z,1015.56
2016-11-03T00:37:52.417Z,1015.58
2016-11-03T00:38:02.410Z,1015.59
2016-11-03T00:38:12.405Z,1015.6
2016-11-03T00:38:22.400Z,1015.61
2016-11-03T00:38:32.394Z,1015.57
2016-11-03T00:38:42.387Z,1015.61
2016-11-03T00:38:52.381Z,1015.59
2016-11-03T00:39:02.398Z,1015.57
2016-11-03T00:39:12.370Z,1015.56
2016-11-03T00:39:22.364Z,1015.55
2016-11-03T00:39:32.358Z,1015.57
2016-11-03T00:39:42.352Z,1015.58
2016-11-03T00:39:52.346Z,1015.59
2016-11-03T00:40:02.340Z,1015.57
2016-11-03T00:40:12.333Z,1015.57
2016-11-03T00:40:22.328Z,1015.63
2016-11-03T00:40:32.320Z,1015.56
2016-11-03T00:40:42.317Z,1015.61
2016-11-03T00:40:52.310Z,1015.57
2016-11-03T00:41:02.303Z,1015.59
2016-11-03T00:41:12.299Z,1015.62
2016-11-03T00:41:22.293Z,1015.57
2016-11-03T00:41:32.287Z,1015.6
2016-11-03T00:41:42.279Z,1015.55
2016-11-03T00:41:52.275Z,1015.58
2016-11-03T00:42:02.269Z,1015.53
2016-11-03T00:42:12.263Z,1015.56
2016-11-03T00:42:22.255Z,1015.57
2016-11-03T00:42:32.251Z,1015.56
2016-11-03T00:42:42.244Z,1015.54
2016-11-03T00:42:52.239Z,1015.52
2016-11-03T00:43:02.232Z,1015.54
2016-11-03T00:43:12.225Z,1015.57
2016-11-03T00:43:22.221Z,1015.61
2016-11-03T00:43:32.212Z,1015.55
2016-11-03T00:43:42.210Z,1015.62
2016-11-03T00:43:52.204Z,1015.57
2016-11-03T00:44:02.197Z,1015.59
2016-11-03T00:44:12.192Z,1015.53
2016-11-03T00:44:22.185Z,1015.6
2016-11-03T00:44:32.177Z,1015.58
2016-11-03T00:44:42.172Z,1015.6
2016-11-03T00:44:52.167Z,1015.59
2016-11-03T00:45:02.192Z,1015.56
2016-11-03T00:45:12.158Z,1015.55
2016-11-03T00:45:22.148Z,1015.59
2016-11-03T00:45:32.142Z,1015.61
2016-11-03T00:45:42.137Z,1015.66
2016-11-03T00:45:52.130Z,1015.63
2016-11-03T00:46:02.126Z,1015.63
2016-11-03T00:46:12.119Z,1015.58
2016-11-03T00:46:22.113Z,1015.63
2016-11-03T00:46:32.134Z,1015.64
2016-11-03T00:46:42.101Z,1015.6
2016-11-03T00:46:52.096Z,1015.62
2016-11-03T00:47:02.089Z,1015.6
2016-11-03T00:47:12.082Z,1015.6
2016-11-03T00:47:22.078Z,1015.63
2016-11-03T00:47:32.069Z,1015.66
2016-11-03T00:47:42.066Z,1015.63
2016-11-03T00:47:52.059Z,1015.63
2016-11-03T00:48:02.052Z,1015.58
2016-11-03T00:48:12.046Z,1015.64
2016-11-03T00:48:22.041Z,1015.6
2016-11-03T00:48:32.034Z,1015.58
2016-11-03T00:48:42.030Z,1015.65
2016-11-03T00:48:52.028Z,1015.6
2016-11-03T00:49:02.017Z,1015.61
2016-11-03T00:49:12.011Z,1015.6
2016-11-03T00:49:22.005Z,1015.57
2016-11-03T00:49:32.001Z,1015.59
2016-11-03T00:49:41.994Z,1015.58
2016-11-03T00:49:52.011Z,1015.63
2016-11-03T00:50:01.983Z,1015.64
2016-11-03T00:50:11.973Z,1015.59
2016-11-03T00:50:21.970Z,1015.58
2016-11-03T00:50:31.968Z,1015.61
2016-11-03T00:50:41.956Z,1015.62
2016-11-03T00:50:51.952Z,1015.66
2016-11-03T00:51:01.945Z,1015.63
2016-11-03T00:51:11.940Z,1015.62
2016-11-03T00:51:21.934Z,1015.63
2016-11-03T00:51:31.927Z,1015.61
2016-11-03T00:51:41.922Z,1015.69
2016-11-03T00:51:51.917Z,1015.65
2016-11-03T00:52:01.909Z,1015.66
2016-11-03T00:52:11.904Z,1015.63
2016-11-03T00:52:21.897Z,1015.58
2016-11-03T00:52:31.893Z,1015.62
2016-11-03T00:52:41.886Z,1015.59
2016-11-03T00:52:51.878Z,1015.62
2016-11-03T00:53:01.874Z,1015.56
2016-11-03T00:53:11.867Z,1015.6
2016-11-03T00:53:21.882Z,1015.61
2016-11-03T00:53:31.857Z,1015.61
2016-11-03T00:53:41.876Z,1015.63
2016-11-03T00:53:51.845Z,1015.63
2016-11-03T00:54:01.839Z,1015.61
2016-11-03T00:54:11.856Z,1015.67
2016-11-03T00:54:21.930Z,1015.62
2016-11-03T00:54:31.821Z,1015.63
2016-11-03T00:54:41.816Z,1015.67
2016-11-03T00:54:51.806Z,1015.67
2016-11-03T00:55:01.803Z,1015.6
2016-11-03T00:55:11.796Z,1015.6
2016-11-03T00:55:21.791Z,1015.62
2016-11-03T00:55:31.784Z,1015.6
2016-11-03T00:55:41.776Z,1015.57
2016-11-03T00:55:51.772Z,1015.64
2016-11-03T00:56:01.766Z,1015.62
2016-11-03T00:56:11.760Z,1015.65
2016-11-03T00:56:21.753Z,1015.63
2016-11-03T00:56:31.748Z,1015.61
2016-11-03T00:56:41.743Z,1015.59
2016-11-03T00:56:51.736Z,1015.59
2016-11-03T00:57:01.730Z,1015.67
2016-11-03T00:57:11.751Z,1015.62
2016-11-03T00:57:21.719Z,1015.59
2016-11-03T00:57:31.712Z,1015.58
2016-11-03T00:57:41.707Z,1015.6
2016-11-03T00:57:51.701Z,1015.61
2016-11-03T00:58:01.696Z,1015.57
2016-11-03T00:58:11.690Z,1015.58
2016-11-03T00:58:21.683Z,1015.61
2016-11-03T00:58:31.678Z,1015.63
2016-11-03T00:58:41.671Z,1015.64
2016-11-03T00:58:51.664Z,1015.6
2016-11-03T00:59:01.659Z,1015.59
2016-11-03T00:59:11.652Z,1015.64
2016-11-03T00:59:21.669Z,1015.63
2016-11-03T00:59:31.641Z,1015.6
2016-11-03T00:59:41.661Z,1015.61
2016-11-03T00:59:51.629Z,1015.65
2016-11-03T01:00:01.623Z,1015.65
2016-11-03T01:00:11.617Z,1015.65
2016-11-03T01:00:21.611Z,1015.62
2016-11-03T01:00:31.605Z,1015.58
2016-11-03T01:00:41.600Z,1015.65
2016-11-03T01:00:51.593Z,1015.6
2016-11-03T01:01:01.587Z,1015.59
2016-11-03T01:01:11.605Z,1015.63
2016-11-03T01:01:21.576Z,1015.61
2016-11-03T01:01:31.569Z,1015.61
2016-11-03T01:01:41.562Z,1015.63
2016-11-03T01:01:51.556Z,1015.68
2016-11-03T01:02:01.552Z,1015.65
2016-11-03T01:02:11.545Z,1015.69
2016-11-03T01:02:21.541Z,1015.64
2016-11-03T01:02:31.534Z,1015.62
2016-11-03T01:02:41.526Z,1015.67
2016-11-03T01:02:51.521Z,1015.63
2016-11-03T01:03:01.513Z,1015.63
2016-11-03T01:03:11.531Z,1015.68
2016-11-03T01:03:21.503Z,1015.67
2016-11-03T01:03:31.497Z,1015.65
2016-11-03T01:03:41.488Z,1015.66
2016-11-03T01:03:51.485Z,1015.65
2016-11-03T01:04:01.477Z,1015.66
2016-11-03T01:04:11.474Z,1015.67
2016-11-03T01:04:21.466Z,1015.68
2016-11-03T01:04:31.462Z,1015.66
2016-11-03T01:04:41.456Z,1015.68
2016-11-03T01:04:51.450Z,1015.69
2016-11-03T01:05:01.445Z,1015.67
2016-11-03T01:05:11.437Z,1015.7
2016-11-03T01:05:21.434Z,1015.72
2016-11-03T01:05:31.453Z,1015.68
2016-11-03T01:05:41.421Z,1015.74
2016-11-03T01:05:51.438Z,1015.72
2016-11-03T01:06:01.407Z,1015.69
2016-11-03T01:06:11.401Z,1015.71
2016-11-03T01:06:21.396Z,1015.68
2016-11-03T01:06:31.390Z,1015.78
2016-11-03T01:06:41.383Z,1015.73
2016-11-03T01:06:51.378Z,1015.74
2016-11-03T01:07:01.371Z,1015.72
2016-11-03T01:07:11.365Z,1015.76
2016-11-03T01:07:21.359Z,1015.67
2016-11-03T01:07:31.354Z,1015.75
2016-11-03T01:07:41.348Z,1015.68
2016-11-03T01:07:51.342Z,1015.67
2016-11-03T01:08:01.438Z,1015.67
2016-11-03T01:08:11.329Z,1015.7
2016-11-03T01:08:21.322Z,1015.67
2016-11-03T01:08:31.318Z,1015.7
2016-11-03T01:08:41.311Z,1015.67
2016-11-03T01:08:51.306Z,1015.67
2016-11-03T01:09:01.301Z,1015.71
2016-11-03T01:09:11.294Z,1015.64
2016-11-03T01:09:21.288Z,1015.65
2016-11-03T01:09:31.283Z,1015.68
2016-11-03T01:09:41.611Z,1015.68
2016-11-03T01:09:51.376Z,1015.65
2016-11-03T01:10:01.264Z,1015.6
2016-11-03T01:10:11.258Z,1015.6
2016-11-03T01:10:21.252Z,1015.66
2016-11-03T01:10:31.247Z,1015.6
2016-11-03T01:10:41.239Z,1015.66
2016-11-03T01:10:51.235Z,1015.58
2016-11-03T01:11:01.227Z,1015.63
2016-11-03T01:11:11.222Z,1015.62
2016-11-03T01:11:21.217Z,1015.6
2016-11-03T01:11:31.209Z,1015.59
2016-11-03T01:11:41.205Z,1015.63
2016-11-03T01:11:51.200Z,1015.65
2016-11-03T01:12:01.192Z,1015.63
2016-11-03T01:12:11.187Z,1015.6
2016-11-03T01:12:21.196Z,1015.59
2016-11-03T01:12:31.174Z,1015.61
2016-11-03T01:12:41.169Z,1015.64
2016-11-03T01:12:51.161Z,1015.61
2016-11-03T01:13:01.158Z,1015.56
2016-11-03T01:13:11.151Z,1015.6
2016-11-03T01:13:21.165Z,1015.61
2016-11-03T01:13:31.138Z,1015.67
2016-11-03T01:13:41.132Z,1015.65
2016-11-03T01:13:51.127Z,1015.64
2016-11-03T01:14:01.120Z,1015.66
2016-11-03T01:14:11.114Z,1015.63
2016-11-03T01:14:21.109Z,1015.62
2016-11-03T01:14:31.102Z,1015.62
2016-11-03T01:14:41.096Z,1015.63
2016-11-03T01:14:51.091Z,1015.64
2016-11-03T01:15:01.418Z,1015.65
2016-11-03T01:15:11.077Z,1015.67
2016-11-03T01:15:21.073Z,1015.66
2016-11-03T01:15:31.064Z,1015.68
2016-11-03T01:15:41.060Z,1015.62
2016-11-03T01:15:51.055Z,1015.63
2016-11-03T01:16:01.048Z,1015.63
2016-11-03T01:16:11.041Z,1015.71
2016-11-03T01:16:21.037Z,1015.67
2016-11-03T01:16:31.031Z,1015.69
2016-11-03T01:16:41.023Z,1015.65
2016-11-03T01:16:51.017Z,1015.63
2016-11-03T01:17:01.012Z,1015.62
2016-11-03T01:17:11.006Z,1015.7
2016-11-03T01:17:21.001Z,1015.7
2016-11-03T01:17:30.994Z,1015.68
2016-11-03T01:17:40.988Z,1015.67
2016-11-03T01:17:50.982Z,1015.64
2016-11-03T01:18:00.979Z,1015.61
2016-11-03T01:18:10.971Z,1015.65
2016-11-03T01:18:20.965Z,1015.71
2016-11-03T01:18:31.067Z,1015.67
2016-11-03T01:18:40.952Z,1015.64
2016-11-03T01:18:51.053Z,1015.66
2016-11-03T01:19:00.940Z,1015.69
2016-11-03T01:19:10.935Z,1015.65
2016-11-03T01:19:20.928Z,1015.66
2016-11-03T01:19:30.923Z,1015.61
2016-11-03T01:19:40.916Z,1015.68
2016-11-03T01:19:50.911Z,1015.65
2016-11-03T01:20:00.905Z,1015.69
2016-11-03T01:20:10.899Z,1015.64
2016-11-03T01:20:20.894Z,1015.61
2016-11-03T01:20:30.887Z,1015.68
2016-11-03T01:20:40.880Z,1015.67
2016-11-03T01:20:50.901Z,1015.65
2016-11-03T01:21:00.869Z,1015.65
2016-11-03T01:21:10.863Z,1015.64
2016-11-03T01:21:20.856Z,1015.65
2016-11-03T01:21:30.862Z,1015.62
2016-11-03T01:21:40.845Z,1015.64
2016-11-03T01:21:50.838Z,1015.61
2016-11-03T01:22:00.833Z,1015.57
2016-11-03T01:22:10.826Z,1015.69
2016-11-03T01:22:20.820Z,1015.61
2016-11-03T01:22:30.815Z,1015.66
2016-11-03T01:22:40.808Z,1015.59
2016-11-03T01:22:50.803Z,1015.64
2016-11-03T01:23:00.796Z,1015.64
2016-11-03T01:23:10.792Z,1015.66
2016-11-03T01:23:20.892Z,1015.57
2016-11-03T01:23:30.779Z,1015.63
2016-11-03T01:23:40.772Z,1015.6
2016-11-03T01:23:50.768Z,1015.59
2016-11-03T01:24:00.762Z,1015.62
2016-11-03T01:24:10.754Z,1015.61
2016-11-03T01:24:20.748Z,1015.6
2016-11-03T01:24:30.743Z,1015.63
2016-11-03T01:24:40.737Z,1015.63
2016-11-03T01:24:50.730Z,1015.64
2016-11-03T01:25:00.726Z,1015.65
2016-11-03T01:25:10.718Z,1015.64
2016-11-03T01:25:20.712Z,1015.63
2016-11-03T01:25:30.708Z,1015.66
2016-11-03T01:25:40.699Z,1015.64
2016-11-03T01:25:50.695Z,1015.63
2016-11-03T01:26:00.689Z,1015.66
2016-11-03T01:26:10.682Z,1015.65
2016-11-03T01:26:20.678Z,1015.64
2016-11-03T01:26:30.672Z,1015.61
2016-11-03T01:26:40.663Z,1015.57
2016-11-03T01:26:50.659Z,1015.59
2016-11-03T01:27:00.652Z,1015.63
2016-11-03T01:27:10.647Z,1015.67
2016-11-03T01:27:20.661Z,1015.63
2016-11-03T01:27:30.636Z,1015.64
2016-11-03T01:27:40.627Z,1015.64
2016-11-03T01:27:50.624Z,1015.65
2016-11-03T01:28:00.617Z,1015.63
2016-11-03T01:28:10.611Z,1015.65
2016-11-03T01:28:20.607Z,1015.65
2016-11-03T01:28:30.599Z,1015.71
2016-11-03T01:28:40.594Z,1015.62
2016-11-03T01:28:50.588Z,1015.65
2016-11-03T01:29:00.582Z,1015.61
2016-11-03T01:29:10.578Z,1015.63
2016-11-03T01:29:20.570Z,1015.61
2016-11-03T01:29:30.561Z,1015.62
2016-11-03T01:29:40.557Z,1015.62
2016-11-03T01:29:50.552Z,1015.65
2016-11-03T01:30:00.569Z,1015.66
2016-11-03T01:30:10.540Z,1015.66
2016-11-03T01:30:20.533Z,1015.64
2016-11-03T01:30:30.636Z,1015.65
2016-11-03T01:30:40.523Z,1015.68
2016-11-03T01:30:50.515Z,1015.64
2016-11-03T01:31:00.509Z,1015.69
2016-11-03T01:31:10.504Z,1015.65
2016-11-03T01:31:20.499Z,1015.68
2016-11-03T01:31:30.490Z,1015.65
2016-11-03T01:31:40.485Z,1015.63
2016-11-03T01:31:50.481Z,1015.67
2016-11-03T01:32:00.475Z,1015.69
2016-11-03T01:32:10.469Z,1015.63
2016-11-03T01:32:20.461Z,1015.69
2016-11-03T01:32:30.455Z,1015.61
2016-11-03T01:32:40.449Z,1015.59
2016-11-03T01:32:50.444Z,1015.63
2016-11-03T01:33:00.439Z,1015.65
2016-11-03T01:33:10.433Z,1015.68
2016-11-03T01:33:20.425Z,1015.64
2016-11-03T01:33:30.420Z,1015.67
2016-11-03T01:33:40.412Z,1015.63
2016-11-03T01:33:50.407Z,1015.68
2016-11-03T01:34:00.402Z,1015.63
2016-11-03T01:34:10.402Z,1015.63
2016-11-03T01:34:20.388Z,1015.65
2016-11-03T01:34:30.414Z,1015.7
2016-11-03T01:34:40.377Z,1015.63
2016-11-03T01:34:50.372Z,1015.66
2016-11-03T01:35:00.365Z,1015.64
2016-11-03T01:35:10.360Z,1015.69
2016-11-03T01:35:20.353Z,1015.66
2016-11-03T01:35:30.348Z,1015.68
2016-11-03T01:35:40.342Z,1015.63
2016-11-03T01:35:50.335Z,1015.65
2016-11-03T01:36:00.665Z,1015.63
2016-11-03T01:36:10.325Z,1015.64
2016-11-03T01:36:20.318Z,1015.62
2016-11-03T01:36:30.314Z,1015.68
2016-11-03T01:36:40.304Z,1015.67
2016-11-03T01:36:50.298Z,1015.66
2016-11-03T01:37:00.294Z,1015.64
2016-11-03T01:37:10.287Z,1015.62
2016-11-03T01:37:20.281Z,1015.68
2016-11-03T01:37:30.276Z,1015.66
2016-11-03T01:37:40.270Z,1015.68
2016-11-03T01:37:50.263Z,1015.64
2016-11-03T01:38:00.258Z,1015.67
2016-11-03T01:38:10.252Z,1015.69
2016-11-03T01:38:20.246Z,1015.66
2016-11-03T01:38:30.241Z,1015.68
2016-11-03T01:38:40.236Z,1015.66
2016-11-03T01:38:50.228Z,1015.68
2016-11-03T01:39:00.222Z,1015.64
2016-11-03T01:39:10.323Z,1015.67
2016-11-03T01:39:20.317Z,1015.68
2016-11-03T01:39:30.203Z,1015.63
2016-11-03T01:39:40.197Z,1015.65
2016-11-03T01:39:50.193Z,1015.67
2016-11-03T01:40:00.187Z,1015.68
2016-11-03T01:40:10.181Z,1015.67
2016-11-03T01:40:20.175Z,1015.68
2016-11-03T01:40:30.166Z,1015.67
2016-11-03T01:40:40.161Z,1015.7
2016-11-03T01:40:50.155Z,1015.72
2016-11-03T01:41:00.149Z,1015.67
2016-11-03T01:41:10.144Z,1015.65
2016-11-03T01:41:20.138Z,1015.68
2016-11-03T01:41:30.132Z,1015.74
2016-11-03T01:41:40.128Z,1015.72
2016-11-03T01:41:50.121Z,1015.73
2016-11-03T01:42:00.114Z,1015.71
2016-11-03T01:42:10.106Z,1015.69
2016-11-03T01:42:20.101Z,1015.65
2016-11-03T01:42:30.096Z,1015.63
2016-11-03T01:42:40.091Z,1015.67
2016-11-03T01:42:50.084Z,1015.71
2016-11-03T01:43:00.079Z,1015.66
2016-11-03T01:43:10.073Z,1015.69
2016-11-03T01:43:20.067Z,1015.72
2016-11-03T01:43:30.060Z,1015.65
2016-11-03T01:43:40.055Z,1015.65
2016-11-03T01:43:50.049Z,1015.65
2016-11-03T01:44:00.044Z,1015.69
2016-11-03T01:44:10.037Z,1015.63
2016-11-03T01:44:20.028Z,1015.67
2016-11-03T01:44:30.025Z,1015.67
2016-11-03T01:44:40.019Z,1015.69
2016-11-03T01:44:50.010Z,1015.69
2016-11-03T01:45:00.005Z,1015.66
2016-11-03T01:45:10.000Z,1015.7
2016-11-03T01:45:19.995Z,1015.7
2016-11-03T01:45:29.988Z,1015.69
2016-11-03T01:45:39.983Z,1015.68
2016-11-03T01:45:49.977Z,1015.67
2016-11-03T01:45:59.971Z,1015.69
2016-11-03T01:46:09.961Z,1015.65
2016-11-03T01:46:19.959Z,1015.66
2016-11-03T01:46:29.952Z,1015.68
2016-11-03T01:46:39.947Z,1015.64
2016-11-03T01:46:49.940Z,1015.68
2016-11-03T01:46:59.935Z,1015.7
2016-11-03T01:47:09.929Z,1015.71
2016-11-03T01:47:19.923Z,1015.68
2016-11-03T01:47:29.916Z,1015.68
2016-11-03T01:47:39.938Z,1015.64
2016-11-03T01:47:49.906Z,1015.69
2016-11-03T01:47:59.897Z,1015.68
2016-11-03T01:48:09.893Z,1015.71
2016-11-03T01:48:19.990Z,1015.68
2016-11-03T01:48:29.880Z,1015.69
2016-11-03T01:48:39.875Z,1015.69
2016-11-03T01:48:49.870Z,1015.65
2016-11-03T01:48:59.863Z,1015.71
2016-11-03T01:49:09.856Z,1015.63
2016-11-03T01:49:19.851Z,1015.71
2016-11-03T01:49:29.872Z,1015.73
2016-11-03T01:49:39.838Z,1015.68
2016-11-03T01:49:49.831Z,1015.69
2016-11-03T01:49:59.827Z,1015.71
2016-11-03T01:50:09.821Z,1015.68
2016-11-03T01:50:19.814Z,1015.69
2016-11-03T01:50:29.810Z,1015.7
2016-11-03T01:50:39.802Z,1015.67
2016-11-03T01:50:49.826Z,1015.66
2016-11-03T01:50:59.792Z,1015.73
2016-11-03T01:51:09.786Z,1015.72
2016-11-03T01:51:19.780Z,1015.66
2016-11-03T01:51:29.774Z,1015.69
2016-11-03T01:51:39.799Z,1015.72
2016-11-03T01:51:49.761Z,1015.68
2016-11-03T01:51:59.755Z,1015.73
2016-11-03T01:52:09.750Z,1015.73
2016-11-03T01:52:19.743Z,1015.69
2016-11-03T01:52:29.738Z,1015.69
2016-11-03T01:52:39.732Z,1015.7
2016-11-03T01:52:49.725Z,1015.72
2016-11-03T01:52:59.719Z,1015.7
2016-11-03T01:53:09.713Z,1015.67
2016-11-03T01:53:19.706Z,1015.69
2016-11-03T01:53:29.808Z,1015.69
2016-11-03T01:53:39.694Z,1015.68
2016-11-03T01:53:49.689Z,1015.72
2016-11-03T01:53:59.684Z,1015.73
2016-11-03T01:54:09.675Z,1015.71
2016-11-03T01:54:19.669Z,1015.68
2016-11-03T01:54:29.665Z,1015.71
2016-11-03T01:54:39.659Z,1015.7
2016-11-03T01:54:49.653Z,1015.71
2016-11-03T01:54:59.646Z,1015.76
2016-11-03T01:55:09.642Z,1015.71
2016-11-03T01:55:19.663Z,1015.68
2016-11-03T01:55:29.628Z,1015.7
2016-11-03T01:55:39.625Z,1015.71
2016-11-03T01:55:49.618Z,1015.73
2016-11-03T01:55:59.611Z,1015.71
2016-11-03T01:56:09.605Z,1015.72
2016-11-03T01:56:19.598Z,1015.77
2016-11-03T01:56:29.620Z,1015.77
2016-11-03T01:56:39.588Z,1015.73
2016-11-03T01:56:49.581Z,1015.75
2016-11-03T01:56:59.576Z,1015.74
2016-11-03T01:57:09.568Z,1015.7
2016-11-03T01:57:19.564Z,1015.75
2016-11-03T01:57:29.555Z,1015.7
2016-11-03T01:57:39.552Z,1015.72
2016-11-03T01:57:49.545Z,1015.74
2016-11-03T01:57:59.540Z,1015.72
2016-11-03T01:58:09.533Z,1015.74
2016-11-03T01:58:19.527Z,1015.71
2016-11-03T01:58:29.521Z,1015.81
2016-11-03T01:58:39.517Z,1015.71
2016-11-03T01:58:49.509Z,1015.73
2016-11-03T01:58:59.518Z,1015.77
2016-11-03T01:59:09.497Z,1015.71
2016-11-03T01:59:19.492Z,1015.78
2016-11-03T01:59:29.512Z,1015.75
2016-11-03T01:59:39.814Z,1015.77
2016-11-03T01:59:49.474Z,1015.76
2016-11-03T01:59:59.467Z,1015.82
2016-11-03T02:00:09.462Z,1015.74
2016-11-03T02:00:19.453Z,1015.72
2016-11-03T02:00:29.449Z,1015.76
2016-11-03T02:00:39.444Z,1015.77
2016-11-03T02:00:49.439Z,1015.76
2016-11-03T02:00:59.432Z,1015.71
2016-11-03T02:01:09.449Z,1015.78